Time;durP1;ratioP1;P1;durP2;ratioP2;P2;SDS_P1;SDS_P2;PMS_P1;PMS_P2;Temp;Humidity;BMP_temperature;BMP_pressure;BME280_temperature;BME280_humidity;BME280_pressure;Samples;Min_cycle;Max_cycle;Signal;HPM_P1;HPM_P2
2022/05/17 00:03:24;;;;;;;1.30;1.17;;;22.70;31.60;;;20.96;32.71;101284.50;12229299;19;20113;-80
2022/05/17 00:07:26;;;;;;;2.78;1.40;;;23.00;31.70;;;21.02;32.67;101294.53;12232807;19;20322;-79
2022/05/17 00:11:28;;;;;;;1.38;1.27;;;22.80;31.90;;;20.98;32.77;101287.81;12232588;19;20337;-80
2022/05/17 00:15:32;;;;;;;2.60;1.40;;;22.80;31.90;;;21.03;32.98;101322.78;12230017;19;20011;-80
2022/05/17 00:19:33;;;;;;;1.30;1.20;;;22.70;32.00;;;20.95;32.63;101310.22;12231546;19;20031;-79
2022/05/17 00:23:36;;;;;;;2.25;1.40;;;22.70;31.90;;;20.83;32.88;101291.88;12229741;19;20022;-80
2022/05/17 00:27:38;;;;;;;2.08;1.40;;;22.50;31.90;;;20.85;32.95;101293.41;12224529;19;20018;-80
2022/05/17 00:31:40;;;;;;;4.07;1.40;;;22.60;32.00;;;20.56;33.03;101256.19;12237142;19;20022;-80
2022/05/17 00:35:45;;;;;;;5.07;1.50;;;22.60;32.00;;;20.79;33.16;101299.25;12230279;19;20583;-80
2022/05/17 00:39:46;;;;;;;1.37;1.00;;;22.50;32.10;;;20.79;33.29;101307.22;12237136;19;20046;-80
2022/05/17 00:48:08;;;;;;;2.80;1.20;;;22.40;32.40;;;20.54;33.48;101292.66;12233076;19;20016;-80
2022/05/17 00:52:19;;;;;;;1.88;1.02;;;22.40;32.50;;;20.45;33.31;101282.81;12232815;19;20447;-80
2022/05/17 00:56:22;;;;;;;1.88;1.20;;;22.20;32.40;;;20.38;33.59;101285.16;12243516;19;20018;-80
2022/05/17 01:00:25;;;;;;;1.75;1.15;;;22.20;32.30;;;20.36;33.47;101273.88;12242853;19;20011;-80
2022/05/17 01:04:28;;;;;;;2.33;1.50;;;22.20;32.30;;;20.50;33.84;101299.19;12236792;19;20334;-80
2022/05/17 01:08:30;;;;;;;2.40;1.40;;;22.20;32.80;;;20.48;33.73;101293.16;12241444;19;20010;-80
2022/05/17 01:12:38;;;;;;;1.23;1.02;;;22.00;33.20;;;20.26;34.20;101268.50;12242374;19;20132;-80
2022/05/17 01:16:40;;;;;;;2.15;1.38;;;22.10;33.70;;;20.31;34.30;101284.88;12245473;19;20010;-80
2022/05/17 01:20:42;;;;;;;1.45;1.10;;;22.10;33.80;;;20.22;34.59;101269.75;12243320;19;20021;-80
2022/05/17 01:24:44;;;;;;;7.45;1.48;;;22.10;34.10;;;20.27;34.89;101278.13;12239995;19;20011;-80
2022/05/17 01:28:46;;;;;;;1.40;1.17;;;22.10;34.60;;;20.07;35.09;101240.13;12238779;19;20018;-80
2022/05/17 01:32:48;;;;;;;3.05;1.63;;;21.90;34.50;;;20.32;35.40;101288.34;12241784;19;20010;-80
2022/05/17 01:36:50;;;;;;;4.35;1.45;;;22.00;34.90;;;19.83;35.90;101219.22;12242411;19;20025;-80
2022/05/17 01:40:51;;;;;;;1.23;1.00;;;22.00;35.20;;;20.00;35.84;101267.28;12235946;19;20034;-80
2022/05/17 01:44:53;;;;;;;3.20;1.13;;;22.00;35.20;;;20.05;35.84;101288.94;12243318;19;20010;-80
2022/05/17 01:48:56;;;;;;;1.35;1.15;;;21.70;35.10;;;20.03;35.99;101290.88;12236953;19;20098;-80
2022/05/17 01:52:58;;;;;;;1.60;1.20;;;21.80;35.20;;;19.65;36.10;101244.63;12244788;19;20053;-80
2022/05/17 01:56:59;;;;;;;3.30;1.13;;;21.80;35.20;;;19.92;36.54;101285.66;12243505;19;20014;-80
2022/05/17 02:01:03;;;;;;;3.97;1.50;;;21.60;35.40;;;19.84;36.75;101287.16;12241244;19;20010;-81
2022/05/17 02:05:07;;;;;;;2.20;1.25;;;21.70;35.40;;;19.89;36.63;101300.03;12239384;19;20074;-80
2022/05/17 02:09:09;;;;;;;1.67;1.27;;;21.70;35.50;;;19.95;36.29;101307.44;12240459;19;20021;-80
2022/05/17 02:13:12;;;;;;;1.65;1.30;;;21.70;35.50;;;19.87;36.31;101297.53;12245490;19;20018;-80
2022/05/17 02:17:13;;;;;;;1.77;1.50;;;21.70;35.60;;;19.72;36.47;101272.31;12237663;19;20031;-80
2022/05/17 02:21:15;;;;;;;1.95;1.27;;;21.60;35.60;;;19.82;36.71;101290.91;12244849;19;20091;-80
2022/05/17 02:25:17;;;;;;;1.67;1.20;;;21.60;35.90;;;19.51;36.94;101239.66;12240275;19;20018;-80
2022/05/17 02:29:19;;;;;;;2.40;1.42;;;22.00;36.80;;;19.59;37.04;101263.69;12242327;19;20014;-80
2022/05/17 02:33:20;;;;;;;2.28;1.33;;;21.60;36.00;;;19.73;37.14;101297.00;12234749;19;20014;-80
2022/05/17 02:37:22;;;;;;;2.33;1.25;;;21.40;36.00;;;19.84;37.31;101316.31;12244196;19;20070;-80
2022/05/17 02:41:23;;;;;;;6.05;1.40;;;21.60;36.30;;;19.91;37.52;101329.06;12242908;19;20013;-81
2022/05/17 02:45:25;;;;;;;4.60;1.50;;;21.60;36.50;;;19.91;37.56;101337.03;12240190;19;20027;-80
2022/05/17 02:49:27;;;;;;;1.55;1.42;;;21.50;36.50;;;19.78;37.68;101322.13;12234576;19;20475;-80
2022/05/17 02:53:29;;;;;;;2.67;1.60;;;21.60;36.60;;;19.77;37.83;101346.16;12235337;19;20014;-80
2022/05/17 02:57:31;;;;;;;2.28;1.48;;;21.30;36.60;;;19.65;37.93;101332.06;12242923;19;20476;-80
2022/05/17 03:01:32;;;;;;;1.77;1.20;;;21.50;36.90;;;19.64;37.95;101346.28;12240120;19;20171;-80
2022/05/17 03:05:34;;;;;;;4.90;1.70;;;21.30;37.10;;;19.32;38.45;101301.28;12240548;19;20018;-80
2022/05/17 03:09:36;;;;;;;2.58;1.77;;;21.40;37.20;;;19.63;38.42;101365.78;12233721;19;20027;-80
2022/05/17 03:13:37;;;;;;;2.20;1.42;;;21.30;37.40;;;19.60;38.52;101366.88;12236906;19;20507;-80
2022/05/17 03:17:39;;;;;;;1.90;1.60;;;21.40;37.50;;;19.54;38.64;101361.25;12234572;19;20011;-81
2022/05/17 03:21:41;;;;;;;1.88;1.50;;;21.20;37.60;;;19.51;38.90;101372.13;12239751;19;20018;-81
2022/05/17 03:25:43;;;;;;;1.58;1.33;;;21.30;37.80;;;19.45;38.90;101379.59;12235754;19;20379;-81
2022/05/17 03:29:44;;;;;;;9.07;1.80;;;21.20;37.80;;;19.46;39.35;101402.47;12237772;19;20445;-80
2022/05/17 03:33:46;;;;;;;2.70;1.67;;;21.30;37.90;;;19.29;39.50;101400.38;12232309;19;20450;-80
2022/05/17 03:37:48;;;;;;;1.67;1.50;;;21.10;38.20;;;19.22;39.36;101397.34;12239166;19;20340;-80
2022/05/17 03:41:50;;;;;;;1.33;1.10;;;21.10;38.10;;;19.16;39.57;101404.97;12237218;19;20030;-80
2022/05/17 03:45:51;;;;;;;2.03;1.38;;;21.00;38.40;;;19.24;39.54;101432.50;12240780;19;20029;-81
2022/05/17 03:49:53;;;;;;;1.55;1.45;;;21.00;38.40;;;19.20;39.90;101438.19;12230819;19;20049;-81
2022/05/17 03:53:55;;;;;;;4.05;1.77;;;21.00;38.60;;;18.99;39.98;101420.41;12237044;19;20017;-82
2022/05/17 03:57:56;;;;;;;2.45;1.40;;;20.90;38.70;;;18.95;39.98;101448.06;12219820;19;20450;-81
2022/05/17 04:01:58;;;;;;;2.00;1.80;;;20.80;38.70;;;18.84;40.52;101431.38;12236976;19;20007;-81
2022/05/17 04:06:00;;;;;;;3.17;1.70;;;20.80;38.90;;;18.86;40.43;101453.25;12232555;19;20006;-81
2022/05/17 04:10:03;;;;;;;1.98;1.52;;;20.70;39.10;;;18.82;40.48;101450.00;12238756;19;20014;-83
2022/05/17 04:14:06;;;;;;;3.08;1.52;;;20.70;39.50;;;18.74;40.87;101447.06;12229161;19;20017;-86
2022/05/17 04:18:08;;;;;;;2.08;1.85;;;20.70;39.70;;;18.64;41.08;101436.38;12233973;19;20011;-79
2022/05/17 04:22:11;;;;;;;2.13;1.40;;;20.40;39.50;;;18.66;41.09;101455.63;12224188;19;20078;-79
2022/05/17 04:26:14;;;;;;;1.40;1.23;;;20.50;40.00;;;18.71;41.25;101479.94;12212913;19;20480;-79
2022/05/17 04:30:16;;;;;;;1.58;1.48;;;20.40;39.90;;;18.67;41.61;101480.28;12228300;19;20484;-79
2022/05/17 04:34:20;;;;;;;1.42;1.33;;;20.50;40.30;;;18.54;41.35;101481.22;12217140;19;20102;-80
2022/05/17 04:38:23;;;;;;;2.13;1.50;;;20.50;40.30;;;18.62;41.53;101503.59;12221770;19;20014;-79
2022/05/17 04:42:26;;;;;;;2.95;1.52;;;20.50;40.40;;;18.51;41.77;101496.50;12223493;19;20010;-79
2022/05/17 04:46:27;;;;;;;1.50;1.40;;;20.50;40.50;;;18.57;42.03;101514.53;12220869;19;20019;-79
2022/05/17 04:50:29;;;;;;;2.35;1.40;;;20.20;40.60;;;18.44;42.09;101496.09;12221214;19;20026;-79
2022/05/17 04:54:30;;;;;;;1.90;1.30;;;20.30;40.90;;;18.55;42.39;101525.25;12216968;19;20089;-79
2022/05/17 04:58:33;;;;;;;1.83;1.70;;;20.50;41.00;;;18.33;42.43;101482.84;12221122;19;20025;-79
2022/05/17 05:02:35;;;;;;;2.45;1.70;;;20.30;41.10;;;18.31;42.49;101487.44;12220950;19;20460;-79
2022/05/17 05:06:37;;;;;;;3.38;1.95;;;20.40;41.20;;;18.43;42.52;101507.66;12222911;19;20014;-79
2022/05/17 05:10:42;;;;;;;1.95;1.40;;;20.20;41.40;;;18.33;42.66;101511.94;12220282;19;20199;-80
2022/05/17 05:14:44;;;;;;;3.17;2.78;;;20.20;41.30;;;18.16;42.79;101496.50;12222260;19;20478;-79
2022/05/17 05:18:45;;;;;;;3.55;1.90;;;20.20;41.50;;;18.07;43.19;101493.59;12219190;19;20509;-79
2022/05/17 05:22:47;;;;;;;1.95;1.50;;;20.10;41.60;;;18.18;42.96;101516.59;12230559;19;20014;-79
2022/05/17 05:26:52;;;;;;;1.77;1.55;;;19.90;41.70;;;17.97;43.32;101484.66;12215932;19;20014;-79
2022/05/17 05:30:57;;;;;;;2.13;1.17;;;20.10;42.00;;;17.85;43.91;101473.22;12237339;19;20014;-80
2022/05/17 05:35:03;;;;;;;2.05;1.58;;;20.00;42.30;;;17.81;43.89;101492.88;12230078;19;20010;-79
2022/05/17 05:39:05;;;;;;;2.28;1.40;;;20.00;42.40;;;17.76;44.17;101507.34;12236631;19;20019;-78
2022/05/17 05:43:07;;;;;;;4.13;1.70;;;19.90;42.50;;;17.38;44.18;101461.63;12240601;19;20014;-78
2022/05/17 05:47:09;;;;;;;8.20;1.88;;;19.80;42.50;;;17.44;44.55;101484.09;12234990;19;20026;-79
2022/05/17 05:51:11;;;;;;;2.95;1.48;;;19.60;42.70;;;17.51;44.74;101492.44;12240460;19;20018;-79
2022/05/17 05:55:21;;;;;;;2.53;1.88;;;19.60;42.80;;;17.58;44.96;101494.53;12234506;19;20021;-80
2022/05/17 05:59:23;;;;;;;4.63;1.60;;;19.50;43.50;;;17.63;44.91;101497.69;12238634;19;20500;-78
2022/05/17 06:03:26;;;;;;;2.42;1.60;;;19.40;43.50;;;17.70;44.96;101488.34;12238094;19;20015;-77
2022/05/17 06:07:28;;;;;;;2.33;1.70;;;19.50;43.80;;;17.73;44.97;101486.44;12232701;19;20003;-78
2022/05/17 06:11:30;;;;;;;2.33;1.90;;;19.50;43.70;;;17.57;45.11;101461.16;12239244;19;20018;-78
2022/05/17 06:15:31;;;;;;;2.10;1.92;;;19.60;43.80;;;17.65;45.27;101494.94;12238504;19;20036;-79
2022/05/17 06:19:34;;;;;;;4.53;1.90;;;19.50;43.70;;;17.53;45.29;101475.53;12234831;19;20017;-78
2022/05/17 06:23:35;;;;;;;4.10;1.70;;;19.30;43.70;;;17.64;45.49;101483.53;12234916;19;20025;-79
2022/05/17 06:27:37;;;;;;;3.35;1.80;;;19.30;44.00;;;17.77;45.28;101509.03;12232903;19;20007;-78
2022/05/17 06:31:39;;;;;;;2.38;1.65;;;19.60;43.90;;;17.80;45.44;101506.22;12233775;19;20011;-78
2022/05/17 06:35:43;;;;;;;5.85;1.85;;;19.40;43.90;;;17.71;45.53;101502.41;12234169;19;20349;-79
2022/05/17 06:39:45;;;;;;;1.98;1.83;;;19.60;44.40;;;17.69;45.40;101499.03;12231584;19;20427;-80
2022/05/17 06:43:47;;;;;;;2.00;1.80;;;19.60;44.10;;;17.86;45.77;101537.47;12233302;19;20374;-79
2022/05/17 06:47:48;;;;;;;3.47;2.03;;;19.70;44.40;;;17.74;45.89;101518.06;12233925;19;20006;-78
2022/05/17 06:51:53;;;;;;;3.97;2.08;;;19.70;44.50;;;17.70;45.77;101522.69;12230914;19;20010;-78
2022/05/17 06:55:55;;;;;;;3.50;2.33;;;19.70;44.70;;;17.82;46.17;101530.72;12233816;19;20064;-77
2022/05/17 06:59:57;;;;;;;2.08;1.88;;;19.70;44.80;;;17.64;46.17;101509.94;12236123;19;20015;-78
2022/05/17 07:03:59;;;;;;;3.47;2.70;;;19.70;44.90;;;17.66;46.35;101509.81;12233470;19;20055;-78
2022/05/17 07:08:02;;;;;;;2.95;2.20;;;19.60;45.20;;;17.83;46.25;101535.06;12201270;19;20344;-77
2022/05/17 07:16:24;;;;;;;3.08;1.83;;;19.80;45.10;;;17.83;46.60;101529.78;12212053;19;20018;-78
2022/05/17 07:20:28;;;;;;;3.22;1.98;;;19.80;45.20;;;17.92;46.52;101539.66;12209531;19;20015;-77
2022/05/17 07:24:32;;;;;;;2.90;1.70;;;19.70;45.10;;;17.87;46.57;101532.06;12206202;19;20715;-78
2022/05/17 07:28:43;;;;;;;2.50;2.20;;;20.20;45.40;;;18.01;46.82;101554.84;12208819;19;20534;-78
2022/05/17 07:32:45;;;;;;;2.80;1.90;;;19.90;45.20;;;17.95;46.96;101557.94;12207174;19;20021;-78
2022/05/17 07:36:47;;;;;;;2.53;1.63;;;19.90;45.40;;;17.87;47.01;101562.94;12211405;19;20698;-78
2022/05/17 07:40:50;;;;;;;4.13;2.00;;;19.80;45.30;;;17.70;47.03;101550.91;12214558;19;20506;-78
2022/05/17 07:44:51;;;;;;;4.63;1.98;;;19.70;45.60;;;17.77;47.41;101583.88;12204115;19;20074;-78
2022/05/17 07:48:53;;;;;;;3.75;2.22;;;19.70;45.60;;;17.50;47.54;101568.19;12208692;19;20026;-78
2022/05/17 07:52:55;;;;;;;5.10;2.88;;;19.60;45.60;;;17.48;47.75;101562.16;12207185;19;20119;-78
2022/05/17 07:56:57;;;;;;;2.92;2.17;;;19.60;45.50;;;17.63;47.53;101582.22;12208092;19;20022;-78
2022/05/17 08:00:58;;;;;;;3.35;2.15;;;19.50;46.20;;;17.77;47.55;101596.22;12207671;19;20026;-78
2022/05/17 08:05:00;;;;;;;5.03;2.25;;;19.40;46.30;;;17.78;47.81;101597.91;12206302;19;20038;-78
2022/05/17 08:09:03;;;;;;;3.55;2.33;;;19.60;46.30;;;17.90;48.00;101600.56;12207712;19;20010;-79
2022/05/17 08:13:05;;;;;;;2.67;2.05;;;19.80;46.60;;;17.80;48.00;101567.81;12187421;19;20014;-80
2022/05/17 08:17:08;;;;;;;2.22;2.00;;;19.80;46.50;;;18.02;47.72;101604.09;12194401;19;20038;-77
2022/05/17 08:21:10;;;;;;;2.95;2.15;;;19.70;46.50;;;18.09;48.04;101588.63;12196114;19;20022;-77
2022/05/17 08:29:35;;;;;;;4.05;2.15;;;20.00;46.70;;;18.30;48.07;101605.56;12195912;19;20011;-77
2022/05/17 08:33:40;;;;;;;3.35;2.42;;;20.10;46.70;;;18.45;48.29;101618.63;12192731;19;20388;-77
2022/05/17 08:37:41;;;;;;;2.83;2.17;;;20.20;47.20;;;18.34;48.15;101579.75;12195582;19;20510;-77
2022/05/17 08:41:53;;;;;;;5.75;2.53;;;20.20;47.00;;;18.62;48.51;101597.03;12194994;19;20024;-77
2022/05/17 08:46:44;;;;;;;3.83;2.45;;;20.40;47.80;;;19.04;48.22;101641.56;12192393;19;20035;-77
2022/05/17 08:50:48;;;;;;;2.55;2.35;;;20.60;48.30;;;19.10;48.45;101631.34;12213971;19;20468;-77
2022/05/17 08:55:23;;;;;;;3.03;2.30;;;20.70;47.40;;;19.20;48.28;101634.16;12213221;19;20021;-77
2022/05/17 08:59:25;;;;;;;3.53;2.30;;;20.90;46.90;;;19.20;47.89;101632.34;12213651;19;20311;-78
2022/05/17 09:04:04;;;;;;;3.10;2.33;;;20.90;46.90;;;19.44;48.66;101655.22;12213923;19;20018;-78
2022/05/17 09:08:23;;;;;;;2.58;2.00;;;21.10;47.20;;;19.51;48.27;101647.66;12213086;19;20053;-78
2022/05/17 09:12:52;;;;;;;5.07;2.30;;;21.20;46.70;;;19.45;48.51;101627.78;12213855;19;20018;-79
2022/05/17 09:17:15;;;;;;;3.60;2.55;;;21.30;46.90;;;19.48;48.28;101627.53;12225507;19;20030;-77
2022/05/17 09:21:28;;;;;;;5.43;2.70;;;21.30;46.40;;;19.73;48.39;101652.97;12229883;19;20035;-78
2022/05/17 09:25:57;;;;;;;2.85;2.60;;;21.40;46.90;;;19.82;48.21;101660.22;12217016;19;20014;-78
2022/05/17 09:30:07;;;;;;;4.15;2.45;;;21.50;46.40;;;19.86;48.14;101660.81;12226752;19;20063;-78
2022/05/17 09:34:08;;;;;;;3.47;2.55;;;21.50;46.80;;;20.01;48.25;101658.72;12223826;19;20012;-79
2022/05/17 09:38:12;;;;;;;2.85;2.60;;;21.60;46.80;;;20.00;48.70;101639.31;12226661;19;20444;-78
2022/05/17 09:42:36;;;;;;;4.28;3.03;;;21.70;47.30;;;20.26;48.60;101658.44;12226788;19;20026;-78
2022/05/17 09:46:50;;;;;;;3.45;2.50;;;21.90;47.40;;;20.23;48.61;101624.22;12225940;19;20031;-82
2022/05/17 09:55:31;;;;;;;3.33;3.03;;;22.30;47.70;;;20.68;48.78;101647.91;12222587;19;20133;-78
2022/05/17 09:59:32;;;;;;;6.05;2.83;;;22.30;47.40;;;20.86;48.40;101665.97;12228657;19;20046;-79
2022/05/17 10:03:39;;;;;;;4.40;3.08;;;22.40;46.90;;;20.93;48.54;101669.78;12223877;19;20511;-78
2022/05/17 10:07:40;;;;;;;6.13;3.08;;;22.50;47.10;;;20.81;48.31;101650.41;12227771;19;20011;-79
2022/05/17 10:11:58;;;;;;;4.22;2.85;;;22.50;46.50;;;21.04;48.60;101677.69;12222612;19;20015;-79
2022/05/17 10:16:18;;;;;;;4.15;3.10;;;22.80;46.60;;;21.05;48.35;101668.75;12225619;19;20139;-79
2022/05/17 10:20:32;;;;;;;5.97;3.50;;;22.90;45.90;;;21.12;48.06;101664.59;12225272;19;20030;-79
2022/05/17 10:24:52;;;;;;;5.20;3.88;;;22.80;46.20;;;21.27;48.37;101678.38;12221131;19;20457;-80
2022/05/17 10:29:38;;;;;;;6.78;3.70;;;22.90;46.40;;;21.25;48.52;101663.53;12222526;19;20018;-80
2022/05/17 10:34:21;;;;;;;5.65;3.78;;;22.80;46.40;;;21.38;48.32;101665.03;12217899;19;20406;-80
2022/05/17 10:38:32;;;;;;;9.07;4.07;;;23.10;46.20;;;21.29;48.05;101631.28;12220687;19;20499;-80
2022/05/17 10:42:35;;;;;;;6.22;4.35;;;23.20;46.50;;;21.56;47.82;101661.78;12225014;19;20018;-80
2022/05/17 10:46:39;;;;;;;8.30;4.38;;;23.30;45.80;;;21.80;48.00;101680.91;12221126;19;20014;-81
2022/05/17 10:51:09;;;;;;;5.47;3.80;;;23.60;46.00;;;21.95;48.14;101683.19;12213983;19;20015;-80
2022/05/17 10:55:25;;;;;;;7.57;4.18;;;23.50;46.10;;;21.84;47.62;101654.88;12219131;19;20871;-83
2022/05/17 10:59:38;;;;;;;5.20;3.75;;;23.60;45.40;;;22.03;47.59;101681.53;12224598;19;20026;-80
2022/05/17 11:04:30;;;;;;;5.30;3.80;;;23.70;45.70;;;21.99;47.65;101680.13;12216051;19;20391;-82
2022/05/17 11:09:14;;;;;;;5.75;3.85;;;23.70;45.30;;;22.07;47.70;101680.28;12221908;19;20042;-81
2022/05/17 11:13:50;;;;;;;4.53;3.55;;;23.80;44.90;;;22.12;47.44;101669.25;12223404;19;20011;-80
2022/05/17 11:18:06;;;;;;;6.50;3.97;;;23.70;45.00;;;22.16;47.32;101677.78;12217246;19;20011;-81
2022/05/17 11:22:46;;;;;;;5.25;3.80;;;23.80;45.20;;;22.14;47.60;101664.59;12221014;19;20026;-81
2022/05/17 11:27:20;;;;;;;6.95;3.75;;;23.90;44.80;;;22.32;47.43;101672.81;12210886;19;20052;-81
2022/05/17 11:32:00;;;;;;;4.47;3.33;;;23.90;44.40;;;22.36;47.17;101665.38;12201522;19;20519;-81
2022/05/17 11:36:10;;;;;;;7.25;3.80;;;24.00;44.60;;;22.43;47.33;101672.66;12196954;19;20014;-80
2022/05/17 11:40:31;;;;;;;9.57;3.92;;;24.10;44.60;;;22.51;47.07;101674.66;12200064;19;20010;-82
2022/05/17 11:44:49;;;;;;;5.55;4.22;;;24.00;44.00;;;22.54;47.23;101672.53;12194461;19;20053;-82
2022/05/17 11:49:12;;;;;;;5.72;4.07;;;24.20;44.60;;;22.64;46.89;101677.03;12197321;19;20502;-80
2022/05/17 11:53:22;;;;;;;7.68;3.63;;;24.30;43.80;;;22.75;46.79;101677.72;12197992;19;20474;-82
2022/05/17 11:57:24;;;;;;;9.15;4.53;;;24.40;44.10;;;22.83;46.56;101692.16;12197511;19;20527;-82
2022/05/17 12:01:31;;;;;;;6.75;3.38;;;24.40;43.40;;;22.90;46.76;101686.13;12196271;19;20014;-80
2022/05/17 12:05:38;;;;;;;6.75;3.17;;;24.50;44.00;;;22.96;46.63;101685.59;12197049;19;20530;-80
2022/05/17 12:09:53;;;;;;;6.03;3.67;;;24.40;43.80;;;23.03;46.89;101685.00;12198890;19;20893;-80
2022/05/17 12:14:20;;;;;;;4.03;3.35;;;24.50;43.90;;;22.96;46.75;101672.28;12195304;19;20655;-80
2022/05/17 12:18:41;;;;;;;7.18;3.83;;;24.70;43.90;;;23.03;46.59;101677.84;12199375;19;20396;-80
2022/05/17 12:23:03;;;;;;;3.75;2.80;;;24.70;43.80;;;23.12;46.69;101690.34;12195577;19;21030;-81
2022/05/17 12:27:24;;;;;;;4.60;3.03;;;24.80;43.80;;;23.18;45.95;101688.94;12195840;19;20023;-81
2022/05/17 12:31:27;;;;;;;4.25;2.67;;;24.80;42.60;;;23.09;46.15;101663.16;12198288;19;20019;-81
2022/05/17 12:35:30;;;;;;;5.38;2.67;;;24.90;42.70;;;23.28;45.73;101695.09;12196704;19;20014;-81
2022/05/17 12:43:54;;;;;;;4.50;2.40;;;24.90;42.20;;;23.34;45.97;101689.16;12195017;19;20009;-81
2022/05/17 12:48:01;;;;;;;2.75;2.17;;;25.10;42.30;;;23.28;45.36;101651.59;12197441;19;20372;-81
2022/05/17 12:52:24;;;;;;;4.47;2.72;;;25.00;41.30;;;23.58;44.84;101688.66;12209162;19;20010;-81
2022/05/17 12:56:36;;;;;;;3.42;2.55;;;25.20;40.90;;;23.23;44.68;101622.72;12204793;19;20022;-81
2022/05/17 13:00:39;;;;;;;4.15;2.13;;;25.20;40.80;;;23.68;44.65;101693.94;12219456;19;20044;-81
2022/05/17 13:04:40;;;;;;;3.53;2.15;;;25.30;41.30;;;23.44;44.89;101645.63;12212673;19;20376;-82
2022/05/17 13:08:42;;;;;;;2.90;2.60;;;25.30;40.90;;;23.77;44.67;101690.44;12215193;19;20378;-82
2022/05/17 13:12:43;;;;;;;3.13;2.15;;;25.20;40.60;;;23.81;44.46;101681.16;12218589;19;20056;-81
2022/05/17 13:16:45;;;;;;;4.40;2.58;;;25.50;40.90;;;23.58;44.19;101624.66;12216754;19;20015;-80
2022/05/17 13:20:50;;;;;;;3.67;3.17;;;25.40;40.40;;;23.88;44.02;101672.56;12227603;19;20086;-81
2022/05/17 13:25:03;;;;;;;6.60;2.40;;;25.50;40.30;;;24.02;44.36;101672.91;12193220;19;20014;-80
2022/05/17 13:29:30;;;;;;;3.83;2.15;;;25.60;40.80;;;24.20;44.25;101686.28;12231786;19;20018;-79
2022/05/17 13:33:41;;;;;;;2.75;2.33;;;25.70;40.70;;;24.27;43.86;101682.00;12232837;19;20019;-80
2022/05/17 13:38:12;;;;;;;4.00;2.38;;;25.80;40.60;;;24.19;43.82;101651.72;12231612;19;20480;-80
2022/05/17 13:42:35;;;;;;;4.00;2.53;;;25.90;39.80;;;24.36;43.44;101663.41;12232119;19;20093;-79
2022/05/17 13:46:42;;;;;;;4.63;2.33;;;25.90;39.80;;;24.32;43.24;101654.03;12231439;19;20022;-80
2022/05/17 13:50:43;;;;;;;2.78;2.20;;;26.00;40.00;;;24.47;43.55;101673.91;12228283;19;20508;-78
2022/05/17 13:54:50;;;;;;;3.85;2.35;;;26.20;39.90;;;24.39;43.41;101655.09;12204917;19;20010;-79
2022/05/17 13:58:53;;;;;;;5.57;2.08;;;26.10;39.70;;;24.42;43.16;101641.44;12218285;19;20033;-78
2022/05/17 14:02:59;;;;;;;2.45;2.10;;;26.20;39.50;;;24.50;42.68;101647.72;12222480;19;20025;-79
2022/05/17 14:07:33;;;;;;;2.25;1.88;;;26.20;39.20;;;24.64;42.83;101664.19;12219171;19;20494;-79
2022/05/17 14:11:51;;;;;;;3.90;2.45;;;26.20;38.80;;;24.60;42.61;101663.69;12220318;19;20887;-78
2022/05/17 14:15:53;;;;;;;3.83;2.05;;;26.30;38.70;;;24.61;42.43;101657.34;12221340;19;20022;-78
2022/05/17 14:19:59;;;;;;;3.25;2.00;;;26.30;38.40;;;24.61;41.83;101651.16;12224819;19;20018;-78
2022/05/17 14:24:01;;;;;;;2.63;2.10;;;26.30;38.30;;;24.67;41.92;101648.69;12220648;19;20022;-79
2022/05/17 14:28:03;;;;;;;2.10;1.73;;;26.30;38.60;;;24.68;41.75;101636.16;12220543;19;20021;-80
2022/05/17 14:32:07;;;;;;;2.95;2.10;;;26.30;38.60;;;24.80;42.15;101629.59;12221809;19;20036;-80
2022/05/17 14:36:18;;;;;;;2.97;1.92;;;26.40;38.30;;;24.94;41.70;101630.88;12224354;19;20052;-80
2022/05/17 14:40:21;;;;;;;2.97;1.70;;;26.50;38.20;;;25.12;41.20;101645.03;12225579;19;20039;-82
2022/05/17 14:44:25;;;;;;;3.20;2.20;;;26.90;38.20;;;25.26;41.56;101650.81;12221779;19;20483;-79
2022/05/17 14:48:28;;;;;;;3.78;1.92;;;26.50;38.20;;;25.35;41.20;101660.56;12222666;19;20023;-80
2022/05/17 14:52:32;;;;;;;2.63;1.98;;;26.60;37.80;;;25.33;40.79;101633.97;12221652;19;20039;-80
2022/05/17 14:56:34;;;;;;;2.22;2.03;;;26.90;37.90;;;25.50;41.38;101656.28;12224462;19;20014;-80
2022/05/17 15:00:36;;;;;;;3.47;2.17;;;26.90;38.10;;;25.39;40.79;101616.47;12223872;19;20022;-80
2022/05/17 15:04:40;;;;;;;3.70;2.20;;;27.00;38.00;;;25.55;41.15;101637.94;12218313;19;20010;-81
2022/05/17 15:08:42;;;;;;;3.50;2.60;;;27.10;38.10;;;25.39;41.04;101593.22;12218368;19;20006;-80
2022/05/17 15:12:44;;;;;;;4.18;2.53;;;27.20;37.90;;;25.65;40.66;101635.09;12218421;19;20025;-79
2022/05/17 15:16:45;;;;;;;4.72;2.25;;;27.30;37.40;;;25.67;40.43;101651.00;12221460;19;20038;-80
2022/05/17 15:20:51;;;;;;;2.90;2.05;;;27.30;37.50;;;25.56;40.26;101636.09;12224994;19;20283;-79
2022/05/17 15:24:56;;;;;;;3.23;2.23;;;27.30;37.60;;;25.47;40.42;101627.19;12215394;19;20472;-79
2022/05/17 15:29:00;;;;;;;4.45;2.00;;;27.20;37.30;;;25.21;40.24;101595.13;12208852;19;20018;-80
2022/05/17 15:33:04;;;;;;;3.78;1.60;;;27.20;37.30;;;25.49;40.92;101643.06;12218759;19;20495;-80
2022/05/17 15:37:09;;;;;;;3.70;2.42;;;27.10;37.50;;;25.36;40.52;101630.16;12219412;19;20022;-78
2022/05/17 15:41:11;;;;;;;6.70;2.20;;;27.00;37.30;;;25.30;40.59;101630.78;12218219;19;20681;-79
2022/05/17 15:45:13;;;;;;;4.50;2.45;;;27.10;37.10;;;24.91;40.43;101599.94;12193907;19;20419;-79
2022/05/17 15:53:38;;;;;;;3.80;2.30;;;26.80;37.10;;;25.02;40.58;101632.75;12211275;19;20014;-79
2022/05/17 15:57:40;;;;;;;3.13;2.33;;;26.90;38.00;;;24.85;40.66;101615.78;12218537;19;20018;-78
2022/05/17 16:01:48;;;;;;;2.58;2.13;;;26.80;37.70;;;24.97;40.44;101649.25;12216320;19;20037;-79
2022/05/17 16:05:49;;;;;;;3.28;2.38;;;26.50;37.50;;;24.95;40.94;101659.25;12222883;19;20028;-79
2022/05/17 16:09:53;;;;;;;8.35;2.53;;;26.50;37.90;;;24.94;41.11;101666.44;12220476;19;20017;-79
2022/05/17 16:13:54;;;;;;;3.15;2.40;;;26.60;38.30;;;24.81;41.20;101641.97;12216995;19;20352;-79
2022/05/17 16:18:01;;;;;;;3.60;2.53;;;26.60;38.60;;;24.79;41.28;101635.09;12221099;19;20587;-80
2022/05/17 16:22:08;;;;;;;3.63;2.38;;;26.60;38.50;;;24.83;41.12;101636.47;12216535;19;20364;-79
2022/05/17 16:26:09;;;;;;;6.05;2.42;;;26.60;38.70;;;24.80;41.15;101647.47;12218142;19;20034;-79
2022/05/17 16:30:17;;;;;;;2.35;2.15;;;26.80;38.80;;;24.75;40.76;101647.94;12221558;19;20019;-79
2022/05/17 16:34:26;;;;;;;5.30;2.70;;;26.70;38.70;;;24.76;41.13;101665.63;12220595;19;20128;-79
2022/05/17 16:38:29;;;;;;;2.65;2.22;;;26.50;38.80;;;24.58;41.66;101640.78;12219100;19;20086;-80
2022/05/17 16:42:33;;;;;;;3.33;2.58;;;26.40;39.00;;;24.45;41.24;101631.31;12219776;19;20035;-80
2022/05/17 16:46:37;;;;;;;3.38;2.40;;;26.30;38.80;;;24.52;41.37;101655.59;12222498;19;20119;-80
2022/05/17 16:50:48;;;;;;;2.92;2.25;;;26.30;39.00;;;24.64;41.89;101665.03;12223231;19;20656;-80
2022/05/17 16:54:49;;;;;;;4.88;2.50;;;26.30;39.20;;;24.65;41.36;101669.38;12220661;19;20074;-80
2022/05/17 16:58:51;;;;;;;2.85;2.45;;;26.30;39.20;;;24.58;41.72;101651.47;12221473;19;20026;-80
2022/05/17 17:02:53;;;;;;;4.15;2.65;;;26.20;39.40;;;24.45;41.52;101638.50;12220240;19;20041;-80
2022/05/17 17:06:54;;;;;;;3.97;2.40;;;26.50;39.20;;;24.64;41.42;101662.38;12219027;19;20014;-80
2022/05/17 17:10:55;;;;;;;3.65;2.40;;;26.10;39.20;;;24.49;41.67;101648.72;12220961;19;20026;-80
2022/05/17 17:14:58;;;;;;;2.17;1.98;;;26.20;39.20;;;24.53;41.73;101659.09;12219020;19;20021;-80
2022/05/17 17:19:00;;;;;;;2.20;2.00;;;26.20;39.30;;;24.51;41.99;101673.44;12221092;19;20027;-80
2022/05/17 17:23:03;;;;;;;3.55;2.15;;;26.10;39.50;;;24.41;41.99;101661.09;12221053;19;20039;-80